createdAt,value
2018-05-26T00:00:03.260Z,25.00
2018-05-26T00:02:32.646Z,23.10
2018-05-26T00:05:05.408Z,25.90
2018-05-26T00:07:34.322Z,20.27
2018-05-26T00:10:16.937Z,20.87
2018-05-26T00:12:45.882Z,22.07
2018-05-26T00:15:14.757Z,23.77
2018-05-26T00:17:44.556Z,23.80
2018-05-26T00:20:13.855Z,23.03
2018-05-26T00:22:47.080Z,22.17
2018-05-26T00:25:16.581Z,25.27
2018-05-26T00:27:46.500Z,22.27
2018-05-26T00:30:17.644Z,23.47
2018-05-26T00:32:46.293Z,22.63
2018-05-26T00:35:27.999Z,20.13
2018-05-26T00:37:57.800Z,22.47
2018-05-26T00:40:27.450Z,25.40
2018-05-26T00:42:56.396Z,20.47
2018-05-26T00:45:25.069Z,22.57
2018-05-26T00:47:53.727Z,21.53
2018-05-26T00:50:25.675Z,23.80
2018-05-26T00:52:54.718Z,26.83
2018-05-26T00:55:27.932Z,23.53
2018-05-26T00:57:58.086Z,21.57
2018-05-26T01:00:31.253Z,22.03
2018-05-26T01:02:59.967Z,23.87
2018-05-26T01:05:34.107Z,21.67
2018-05-26T01:08:02.764Z,20.70
2018-05-26T01:10:35.984Z,23.43
2018-05-26T01:13:04.941Z,20.10
2018-05-26T01:15:37.631Z,23.50
2018-05-26T01:18:07.388Z,23.93
2018-05-26T01:20:40.718Z,20.90
2018-05-26T01:23:09.375Z,20.33
2018-05-26T01:25:42.779Z,21.43
2018-05-26T01:28:12.683Z,20.57
2018-05-26T01:30:53.687Z,21.77
2018-05-26T01:33:24.020Z,21.67
2018-05-26T01:35:53.888Z,24.27
2018-05-26T01:38:23.690Z,21.17
2018-05-26T01:40:53.042Z,23.43
2018-05-26T01:43:23.441Z,22.87
2018-05-26T01:45:52.916Z,22.00
2018-05-26T01:48:21.836Z,23.03
2018-05-26T01:51:03.528Z,22.27
2018-05-26T01:53:33.200Z,18.37
2018-05-26T01:56:02.636Z,20.60
2018-05-26T01:58:31.257Z,18.93
2018-05-26T02:01:01.060Z,20.80
2018-05-26T02:03:29.734Z,21.13
2018-05-26T02:06:03.349Z,21.70
2018-05-26T02:08:33.426Z,20.33
2018-05-26T02:11:14.385Z,19.63
2018-05-26T02:13:43.278Z,20.40
2018-05-26T02:16:12.391Z,19.63
2018-05-26T02:18:41.092Z,18.47
2018-05-26T02:21:12.453Z,18.70
2018-05-26T02:23:41.876Z,19.97
2018-05-26T02:26:14.928Z,22.53
2018-05-26T02:28:43.965Z,21.17
2018-05-26T02:31:16.848Z,18.57
2018-05-26T02:33:46.312Z,19.63
2018-05-26T02:36:27.756Z,20.77
2018-05-26T02:38:56.428Z,20.77
2018-05-26T02:41:26.052Z,20.77
2018-05-26T02:43:55.132Z,19.93
2018-05-26T02:46:23.777Z,21.27
2018-05-26T02:48:53.185Z,17.87
2018-05-26T02:51:25.082Z,18.30
2018-05-26T02:53:54.707Z,21.77
2018-05-26T02:56:26.320Z,18.77
2018-05-26T02:58:55.288Z,18.23
2018-05-26T03:01:30.964Z,17.07
2018-05-26T03:04:00.273Z,16.87
2018-05-26T03:06:36.676Z,16.67
2018-05-26T03:09:12.030Z,17.90
2018-05-26T03:11:46.518Z,19.63
2018-05-26T03:14:21.630Z,20.43
2018-05-26T03:16:51.144Z,22.20
2018-05-26T03:19:19.787Z,19.60
2018-05-26T03:21:49.319Z,20.93
2018-05-26T03:24:19.376Z,18.17
2018-05-26T03:26:49.547Z,22.73
2018-05-26T03:29:18.952Z,22.93
2018-05-26T03:31:47.961Z,20.23
2018-05-26T03:34:17.378Z,22.43
2018-05-26T03:36:46.417Z,24.70
2018-05-26T03:39:15.451Z,23.80
2018-05-26T03:41:49.333Z,24.57
2018-05-26T03:44:19.141Z,23.63
2018-05-26T03:46:51.074Z,22.63
2018-05-26T03:49:21.220Z,20.90
2018-05-26T03:51:52.139Z,19.97
2018-05-26T03:54:21.457Z,23.83
2018-05-26T03:57:02.316Z,21.40
2018-05-26T03:59:42.585Z,20.90
2018-05-26T04:02:11.240Z,21.33
2018-05-26T04:04:40.256Z,20.80
2018-05-26T04:07:09.665Z,23.23
2018-05-26T04:09:38.360Z,21.03
2018-05-26T04:12:07.296Z,22.07
2018-05-26T04:14:36.353Z,21.00
2018-05-26T04:17:06.613Z,22.43
2018-05-26T04:19:36.674Z,20.97
2018-05-26T04:22:19.381Z,22.23
2018-05-26T04:24:48.408Z,18.90
2018-05-26T04:40:37.217Z,17.40
2018-05-26T04:43:06.875Z,21.07
2018-05-26T04:45:36.775Z,19.97
2018-05-26T04:48:05.453Z,19.17
2018-05-26T04:50:34.863Z,19.63
2018-05-26T04:53:05.695Z,19.10
2018-05-26T04:55:34.382Z,18.17
2018-05-26T04:58:03.880Z,22.30
2018-05-26T05:00:32.855Z,20.07
2018-05-26T05:03:02.337Z,21.47
2018-05-26T05:05:32.556Z,22.57
2018-05-26T05:08:02.347Z,18.27
2018-05-26T05:10:32.285Z,19.00
2018-05-26T05:13:01.385Z,19.40
2018-05-26T05:15:34.888Z,19.43
2018-05-26T05:18:04.116Z,21.67
2018-05-26T05:20:36.980Z,19.60
2018-05-26T05:23:07.710Z,18.97
2018-05-26T05:25:39.814Z,19.63
2018-05-26T05:28:09.932Z,21.53
2018-05-26T05:30:41.816Z,21.90
2018-05-26T05:33:11.261Z,22.50
2018-05-26T05:35:53.146Z,21.63
2018-05-26T05:38:21.891Z,22.77
2018-05-26T05:40:51.303Z,21.37
2018-05-26T05:43:19.981Z,20.93
2018-05-26T05:45:49.683Z,19.00
2018-05-26T05:48:19.088Z,18.33
2018-05-26T05:50:52.703Z,15.07
2018-05-26T05:53:21.752Z,16.97
2018-05-26T05:55:54.880Z,17.07
2018-05-26T05:58:24.293Z,17.83
2018-05-26T06:00:57.286Z,14.80
2018-05-26T06:03:26.366Z,16.10
2018-05-26T06:06:08.991Z,15.18
2018-05-26T06:08:38.432Z,13.98
2018-05-26T06:11:07.164Z,13.00
2018-05-26T06:13:36.800Z,13.15
2018-05-26T06:16:06.988Z,15.65
2018-05-26T06:18:36.455Z,12.43
2018-05-26T06:21:10.701Z,12.70
2018-05-26T06:23:39.752Z,13.38
2018-05-26T06:26:12.388Z,13.20
2018-05-26T06:28:41.560Z,14.68
2018-05-26T06:31:15.103Z,14.02
2018-05-26T06:33:43.966Z,13.95
2018-05-26T06:36:25.693Z,14.35
2018-05-26T06:38:55.311Z,12.75
2018-05-26T06:41:24.040Z,13.77
2018-05-26T06:43:53.777Z,12.80
2018-05-26T06:46:22.436Z,12.57
2018-05-26T06:48:52.074Z,12.88
2018-05-26T06:51:23.339Z,12.77
2018-05-26T06:53:52.450Z,11.82
2018-05-26T06:56:25.561Z,11.95
2018-05-26T06:58:54.975Z,11.75
2018-05-26T07:01:36.437Z,13.18
2018-05-26T07:04:09.656Z,13.15
2018-05-26T07:06:39.039Z,11.15
2018-05-26T07:09:07.830Z,12.35
2018-05-26T07:11:37.162Z,12.00
2018-05-26T07:14:06.848Z,11.00
2018-05-26T07:16:36.664Z,10.95
2018-05-26T07:19:06.701Z,10.52
2018-05-26T07:21:38.764Z,11.00
2018-05-26T07:24:07.545Z,12.37
2018-05-26T07:26:38.887Z,11.18
2018-05-26T07:29:08.237Z,12.82
2018-05-26T07:31:41.045Z,10.95
2018-05-26T07:34:12.778Z,10.30
2018-05-26T07:36:45.515Z,12.00
2018-05-26T07:39:15.155Z,13.02
2018-05-26T07:41:45.777Z,9.95
2018-05-26T07:44:23.611Z,10.80
2018-05-26T07:46:52.288Z,11.02
2018-05-26T07:49:21.325Z,11.98
2018-05-26T07:51:52.308Z,11.18
2018-05-26T07:54:21.926Z,8.90
2018-05-26T07:56:54.997Z,9.35
2018-05-26T07:59:23.928Z,9.13
2018-05-26T08:02:05.694Z,9.57
2018-05-26T08:04:34.634Z,9.07
2018-05-26T08:07:04.113Z,8.13
2018-05-26T08:09:33.954Z,9.40
2018-05-26T08:12:03.887Z,10.13
2018-05-26T08:14:32.585Z,9.80
2018-05-26T08:17:14.537Z,8.02
2018-05-26T08:19:44.358Z,7.80
2018-05-26T08:22:14.596Z,10.05
2018-05-26T08:24:44.100Z,9.10
2018-05-26T08:27:14.089Z,9.95
2018-05-26T08:29:43.145Z,9.75
2018-05-26T08:32:15.587Z,10.65
2018-05-26T08:34:45.632Z,8.18
2018-05-26T08:37:19.311Z,8.93
2018-05-26T08:39:47.981Z,9.45
2018-05-26T08:42:26.179Z,12.95
2018-05-26T08:44:54.848Z,8.52
2018-05-26T08:47:23.513Z,8.10
2018-05-26T08:49:52.724Z,7.93
2018-05-26T08:52:24.644Z,8.55
2018-05-26T08:54:53.376Z,8.82
2018-05-26T08:57:25.719Z,8.00
2018-05-26T08:59:54.368Z,9.80
2018-05-26T09:02:27.061Z,8.23
2018-05-26T09:04:56.732Z,8.32
2018-05-26T09:07:29.070Z,8.20
2018-05-26T09:09:57.760Z,6.82
2018-05-26T09:12:31.987Z,10.75
2018-05-26T09:15:01.861Z,11.38
2018-05-26T09:17:34.275Z,7.20
2018-05-26T09:20:03.731Z,8.63
2018-05-26T09:22:35.676Z,8.35
2018-05-26T09:25:05.317Z,7.87
2018-05-26T09:27:37.899Z,7.68
2018-05-26T09:30:08.056Z,7.45
2018-05-26T09:32:50.000Z,7.65
2018-05-26T09:35:20.404Z,8.15
2018-05-26T09:37:49.828Z,8.57
2018-05-26T09:40:19.461Z,8.18
2018-05-26T09:42:48.370Z,7.20
2018-05-26T09:45:17.177Z,8.52
2018-05-26T09:47:50.208Z,6.70
2018-05-26T09:50:19.540Z,8.25
2018-05-26T09:52:51.835Z,7.22
2018-05-26T09:55:23.429Z,8.75
2018-05-26T09:57:54.137Z,6.32
2018-05-26T10:00:23.919Z,7.40
2018-05-26T10:02:57.752Z,6.47
2018-05-26T10:05:27.616Z,7.47
2018-05-26T10:07:59.725Z,6.07
2018-05-26T10:10:29.867Z,9.98
2018-05-26T10:13:03.208Z,8.98
2018-05-26T10:15:32.609Z,7.28
2018-05-26T10:18:05.173Z,7.40
2018-05-26T10:20:35.277Z,7.45
2018-05-26T10:23:09.119Z,6.60
2018-05-26T10:25:38.779Z,8.00
2018-05-26T10:28:11.533Z,6.35
2018-05-26T10:30:40.966Z,6.32
2018-05-26T10:33:13.520Z,7.10
2018-05-26T10:35:43.215Z,5.85
2018-05-26T10:38:16.905Z,5.93
2018-05-26T10:40:46.557Z,6.18
2018-05-26T10:43:20.415Z,8.63
2018-05-26T10:45:58.684Z,6.30
2018-05-26T10:48:27.623Z,7.03
2018-05-26T10:50:56.746Z,6.72
2018-05-26T10:53:26.527Z,8.13
2018-05-26T10:55:55.250Z,7.65
2018-05-26T10:58:27.117Z,6.57
2018-05-26T11:00:57.155Z,6.18
2018-05-26T11:03:28.183Z,5.90
2018-05-26T11:05:56.902Z,6.22
2018-05-26T11:08:30.635Z,6.45
2018-05-26T11:10:59.285Z,6.28
2018-05-26T11:13:33.060Z,6.65
2018-05-26T11:18:08.552Z,6.12
2018-05-26T11:20:37.700Z,5.55
2018-05-26T11:23:06.996Z,6.05
2018-05-26T11:25:37.735Z,5.43
2018-05-26T11:28:06.889Z,6.03
2018-05-26T11:30:49.812Z,5.87
2018-05-26T11:33:19.465Z,5.15
2018-05-26T11:35:49.528Z,7.18
2018-05-26T11:38:18.851Z,5.68
2018-05-26T11:40:47.601Z,5.32
2018-05-26T11:43:17.182Z,4.82
2018-05-26T11:45:48.130Z,5.87
2018-05-26T11:48:18.517Z,6.35
2018-05-26T11:50:50.576Z,6.15
2018-05-26T11:53:20.249Z,6.20
2018-05-26T11:55:53.675Z,5.47
2018-05-26T11:58:23.343Z,5.55
2018-05-26T12:00:57.023Z,7.53
2018-05-26T12:03:27.088Z,5.18
2018-05-26T12:05:58.532Z,6.12
2018-05-26T12:08:27.176Z,5.55
2018-05-26T12:11:01.033Z,5.97
2018-05-26T12:13:30.674Z,4.90
2018-05-26T12:16:04.517Z,5.03
2018-05-26T12:18:33.393Z,5.50
2018-05-26T12:21:06.805Z,5.12
2018-05-26T12:23:35.831Z,4.10
2018-05-26T12:26:09.915Z,5.85
2018-05-26T12:28:38.937Z,4.20
2018-05-26T12:31:11.732Z,4.78
2018-05-26T12:33:40.769Z,4.35
2018-05-26T12:36:22.905Z,4.57
2018-05-26T12:38:51.990Z,4.40
2018-05-26T12:41:22.055Z,4.22
2018-05-26T12:43:51.949Z,3.80
2018-05-26T12:46:22.731Z,4.40
2018-05-26T12:48:52.110Z,5.43
2018-05-26T12:51:21.637Z,3.92
2018-05-26T12:53:51.253Z,6.72
2018-05-26T12:56:24.486Z,4.30
2018-05-26T12:58:53.236Z,4.32
2018-05-26T13:01:26.805Z,4.60
2018-05-26T13:03:56.608Z,5.05
2018-05-26T13:06:27.789Z,6.40
2018-05-26T13:08:57.122Z,3.90
2018-05-26T13:11:30.421Z,4.47
2018-05-26T13:13:59.888Z,4.80
2018-05-26T13:16:33.146Z,3.42
2018-05-26T13:19:02.167Z,4.28
2018-05-26T13:21:44.113Z,4.37
2018-05-26T13:24:13.156Z,5.10
2018-05-26T13:26:41.980Z,5.60
2018-05-26T13:29:11.816Z,4.00
2018-05-26T13:31:40.829Z,3.70
2018-05-26T13:34:10.246Z,6.07
2018-05-26T13:36:42.381Z,4.20
2018-05-26T13:39:12.866Z,3.60
2018-05-26T13:41:44.820Z,3.80
2018-05-26T13:44:13.508Z,3.50
2018-05-26T13:46:46.756Z,5.07
2018-05-26T13:49:17.788Z,5.65
2018-05-26T13:51:51.733Z,4.35
2018-05-26T13:54:20.733Z,7.97
2018-05-26T13:56:53.173Z,5.22
2018-05-26T13:59:22.625Z,6.47
2018-05-26T14:01:56.673Z,4.05
2018-05-26T14:04:26.944Z,4.47
2018-05-26T14:06:58.974Z,4.30
2018-05-26T14:09:28.731Z,4.03
2018-05-26T14:12:09.902Z,4.65
2018-05-26T14:14:39.295Z,4.57
2018-05-26T14:17:08.368Z,3.67
2018-05-26T14:19:37.809Z,6.55
2018-05-26T14:22:07.252Z,7.95
2018-05-26T14:24:37.407Z,4.53
2018-05-26T14:27:08.681Z,4.00
2018-05-26T14:29:37.738Z,4.97
2018-05-26T14:32:20.560Z,4.00
2018-05-26T14:34:49.688Z,4.05
2018-05-26T14:37:19.256Z,4.12
2018-05-26T14:39:48.906Z,5.55
2018-05-26T14:42:19.720Z,6.05
2018-05-26T14:44:48.792Z,4.68
2018-05-26T14:47:19.382Z,7.55
2018-05-26T14:49:53.241Z,5.45
2018-05-26T14:52:21.893Z,3.70
2018-05-26T14:54:51.712Z,5.55
2018-05-26T14:57:23.618Z,5.32
2018-05-26T14:59:53.657Z,6.12
2018-05-26T15:02:26.132Z,4.40
2018-05-26T15:04:54.799Z,5.60
2018-05-26T15:07:26.979Z,4.20
2018-05-26T15:09:57.173Z,4.22
2018-05-26T15:12:30.201Z,4.28
2018-05-26T15:15:00.176Z,4.82
2018-05-26T15:17:32.706Z,4.30
2018-05-26T15:20:02.977Z,4.82
2018-05-26T15:22:35.180Z,4.37
2018-05-26T15:25:03.957Z,4.28
2018-05-26T15:27:46.000Z,6.00
2018-05-26T15:30:15.542Z,3.65
2018-05-26T15:32:44.201Z,4.37
2018-05-26T15:35:13.631Z,5.10
2018-05-26T15:37:42.633Z,4.55
2018-05-26T15:40:12.078Z,4.07
2018-05-26T15:42:44.636Z,6.18
2018-05-26T15:45:14.527Z,4.50
2018-05-26T15:47:46.831Z,5.20
2018-05-26T15:50:16.475Z,4.53
2018-05-26T15:52:49.712Z,5.62
2018-05-26T15:55:18.405Z,5.85
2018-05-26T15:57:59.633Z,4.28
2018-05-26T16:00:28.316Z,6.25
2018-05-26T16:02:58.560Z,4.20
2018-05-26T16:05:27.691Z,6.03
2018-05-26T16:07:57.393Z,6.22
2018-05-26T16:10:27.059Z,5.60
2018-05-26T16:13:09.176Z,4.95
2018-05-26T16:15:39.244Z,4.87
2018-05-26T16:18:09.134Z,4.82
2018-05-26T16:20:38.649Z,4.45
2018-05-26T16:23:07.727Z,4.43
2018-05-26T16:25:36.816Z,4.20
2018-05-26T16:28:08.676Z,4.30
2018-05-26T16:30:39.168Z,4.82
2018-05-26T16:33:12.503Z,4.93
2018-05-26T16:35:42.520Z,5.37
2018-05-26T16:38:15.052Z,4.70
2018-05-26T16:40:44.515Z,5.00
2018-05-26T16:43:25.820Z,6.25
2018-05-26T16:45:54.840Z,7.22
2018-05-26T16:48:24.236Z,4.43
2018-05-26T16:50:52.926Z,6.10
2018-05-26T16:53:21.991Z,8.68
2018-05-26T16:55:50.932Z,6.25
2018-05-26T16:58:23.260Z,6.78
2018-05-26T17:00:52.771Z,4.60
2018-05-26T17:03:25.696Z,5.40
2018-05-26T17:05:54.995Z,5.22
2018-05-26T17:08:27.633Z,5.80
2018-05-26T17:10:57.571Z,4.43
2018-05-26T17:13:30.901Z,4.70
2018-05-26T17:15:59.547Z,6.12
2018-05-26T17:18:33.123Z,4.53
2018-05-26T17:21:02.755Z,5.03
2018-05-26T17:23:35.664Z,4.28
2018-05-26T17:26:06.558Z,4.15
2018-05-26T17:28:37.273Z,4.60
2018-05-26T17:31:07.445Z,5.50
2018-05-26T17:33:38.626Z,4.32
2018-05-26T17:36:07.507Z,4.95
2018-05-26T17:38:41.000Z,5.70
2018-05-26T17:41:10.097Z,5.03
2018-05-26T17:43:43.492Z,9.13
2018-05-26T17:46:13.161Z,6.70
2018-05-26T17:48:56.252Z,6.78
2018-05-26T17:51:25.387Z,6.55
2018-05-26T17:53:55.117Z,5.10
2018-05-26T17:56:24.188Z,4.72
2018-05-26T17:58:52.852Z,5.43
2018-05-26T18:01:22.917Z,4.57
2018-05-26T18:03:55.865Z,6.65
2018-05-26T18:06:25.475Z,5.85
2018-05-26T18:08:57.566Z,5.28
2018-05-26T18:11:27.175Z,5.60
2018-05-26T18:14:00.650Z,5.05
2018-05-26T18:16:30.739Z,4.43
2018-05-26T18:19:02.596Z,6.30
2018-05-26T18:21:32.028Z,5.05
2018-05-26T18:24:06.124Z,5.32
2018-05-26T18:26:34.795Z,4.80
2018-05-26T18:29:10.524Z,4.70
2018-05-26T18:31:40.346Z,5.00
2018-05-26T18:34:11.928Z,5.15
2018-05-26T18:36:41.728Z,4.93
2018-05-26T18:39:13.689Z,5.60
2018-05-26T18:41:42.721Z,5.18
2018-05-26T18:44:15.376Z,5.07
2018-05-26T18:46:44.479Z,6.32
2018-05-26T18:49:18.044Z,8.13
2018-05-26T18:51:46.739Z,5.00
2018-05-26T18:54:20.740Z,6.82
2018-05-26T18:56:49.373Z,5.25
2018-05-26T18:59:22.992Z,4.47
2018-05-26T19:01:54.451Z,5.60
2018-05-26T19:04:26.301Z,6.32
2018-05-26T19:06:56.640Z,5.97
2018-05-26T19:09:29.080Z,6.55
2018-05-26T19:11:58.904Z,6.10
2018-05-26T19:14:40.585Z,6.45
2018-05-26T19:17:10.213Z,6.75
2018-05-26T19:19:40.633Z,5.43
2018-05-26T19:22:11.073Z,7.28
2018-05-26T19:24:40.079Z,5.45
2018-05-26T19:27:10.240Z,5.37
2018-05-26T19:29:40.001Z,6.35
2018-05-26T19:32:08.708Z,7.20
2018-05-26T19:34:39.564Z,7.55
2018-05-26T19:37:09.787Z,6.20
2018-05-26T19:39:41.415Z,6.93
2018-05-26T19:42:10.407Z,5.43
2018-05-26T19:44:42.813Z,5.22
2018-05-26T19:47:12.593Z,7.87
2018-05-26T19:49:45.895Z,5.55
2018-05-26T19:52:15.483Z,5.25
2018-05-26T19:54:48.664Z,8.20
2018-05-26T19:57:17.585Z,5.65
2018-05-26T19:59:50.356Z,6.07
2018-05-26T20:02:20.821Z,5.85
2018-05-26T20:05:02.990Z,6.40
2018-05-26T20:07:33.165Z,6.00
2018-05-26T20:10:02.552Z,7.33
2018-05-26T20:12:32.105Z,5.57
2018-05-26T20:15:02.372Z,6.07
2018-05-26T20:17:32.428Z,6.18
2018-05-26T20:20:02.706Z,6.40
2018-05-26T20:22:32.089Z,6.03
2018-05-26T20:25:16.552Z,5.55
2018-05-26T20:27:45.215Z,5.95
2018-05-26T20:30:13.952Z,5.67
2018-05-26T20:32:43.660Z,7.53
2018-05-26T20:35:13.668Z,6.03
2018-05-26T20:37:43.118Z,7.23
2018-05-26T20:40:14.037Z,6.10
2018-05-26T20:42:42.677Z,6.27
2018-05-26T20:45:16.222Z,6.97
2018-05-26T20:47:45.913Z,6.03
2018-05-26T20:50:18.750Z,6.90
2018-05-26T20:52:48.171Z,6.67
2018-05-26T20:55:21.336Z,6.53
2018-05-26T20:57:50.392Z,6.23
2018-05-26T21:00:22.705Z,7.20
2018-05-26T21:02:52.429Z,6.83
2018-05-26T21:05:27.092Z,7.47
2018-05-26T21:07:56.733Z,7.77
2018-05-26T21:10:28.733Z,7.87
2018-05-26T21:12:58.336Z,7.07
2018-05-26T21:15:29.392Z,7.03
2018-05-26T21:18:01.991Z,7.30
2018-05-26T21:20:32.247Z,9.63
2018-05-26T21:23:03.158Z,8.03
2018-05-26T21:25:34.220Z,9.23
2018-05-26T21:28:04.339Z,9.50
2018-05-26T21:30:36.124Z,10.00
2018-05-26T21:33:05.908Z,9.63
2018-05-26T21:35:39.793Z,9.33
2018-05-26T21:38:09.879Z,9.10
2018-05-26T21:40:42.648Z,8.60
2018-05-26T21:43:12.482Z,8.43
2018-05-26T21:45:45.208Z,10.97
2018-05-26T21:48:13.909Z,10.47
2018-05-26T21:50:49.771Z,10.90
2018-05-26T21:53:19.661Z,11.50
2018-05-26T21:55:49.471Z,9.17
2018-05-26T21:58:20.802Z,9.00
2018-05-26T22:00:51.480Z,9.17
2018-05-26T22:03:23.170Z,10.50
